Chippewa Bay, NY (13623)

12:20 AM EDT on May 24, 2015 (GMT -0400)
Chippewa Bay | | Change Station
CLOSE
Current Station
Personal Weather Station
Location: Hammond, NY
Elevation: 361 ft
Nearby Weather Stations

Elev 361 ft 44.41 °N, 75.75 °W | Updated 19 seconds ago

Clear
Clear
52.0 °F
Feels Like 52.0 °F
N
9.2
Wind Variable Wind from SW
Gusts 9.8 mph

Today
High -- | Low -- °F
--% Chance of Precip.
Yesterday
High -- | Low -- °F
Precip. -- in
5:27 AM 8:33 PM
Waxing Crescent, 35% visible
Pressure 30.21 in
Visibility 10.0 miles
Clouds Clear
Dew Point 34 °F
Humidity 50%
Rainfall 0.00 in
Snow Depth Not available.
UV 0.0 out of 12
Pollen 8.80 out of 12
Air Quality Not available.
Flu Activity Widespread
METAR KGTB 240358Z AUTO 24011G21KT 10SM CLR 14/M05 A3020 RMK AO2 SLP229 T01431048 $

More Conditions Fewer Conditions

Pressure 30.21 in
Visibility 10.0 miles
Clouds Clear
Dew Point 34 °F
Humidity 50%
Rainfall 0.00 in
Snow Depth Not available.
UV 0.0 out of 12
Pollen 8.80 out of 12
Air Quality Not available.
Flu Activity Widespread
METAR KGTB 240358Z AUTO 24011G21KT 10SM CLR 14/M05 A3020 RMK AO2 SLP229 T01431048 $

More Conditions Fewer Conditions

10-Day Weather Forecast

Almanac

Astronomy

May. 24, 2015 Rise Set
Actual Time
Civil Twilight
Nautical Twilight
Astronomical Twilight
Moon
Length of Visible Light
Length of Day
Tomorrow will be .
, % of the Moon is Illuminated

Today's Extremes

State Highs State Lows

Community

WunderPhotos

Upload Photos

1,823,687 photos uploaded!

WunderBlogs® & News

Nearby

Air Quality

  Air Quality AQ Index Pollutant
Not available.

Snow Depth

Station Depth Elevation

Earthquake Activity

City Distance Mag. Time & Date
Minimum magnitude displayed is 2.5.

Coastal Water Temperatures

Place Temperature

Stations

Nearby Weather Stations

Station Location Temp. Windchill Dew Point Humidity Wind Precip. Elev Updated Type